createdAt,value
2018-07-22T00:02:03.677Z,4.30
2018-07-22T00:04:31.822Z,4.65
2018-07-22T00:06:59.746Z,5.05
2018-07-22T00:09:27.890Z,5.10
2018-07-22T00:11:55.977Z,4.70
2018-07-22T00:14:24.054Z,4.67
2018-07-22T00:16:52.159Z,4.70
2018-07-22T00:19:20.329Z,4.45
2018-07-22T00:21:48.430Z,4.83
2018-07-22T00:24:16.625Z,4.75
2018-07-22T00:26:44.794Z,4.47
2018-07-22T00:29:12.914Z,5.15
2018-07-22T00:31:42.040Z,5.08
2018-07-22T00:34:10.310Z,5.00
2018-07-22T00:36:38.465Z,4.62
2018-07-22T00:39:08.418Z,4.47
2018-07-22T00:41:36.592Z,4.67
2018-07-22T00:44:04.801Z,4.97
2018-07-22T00:46:32.962Z,4.95
2018-07-22T00:49:01.134Z,4.20
2018-07-22T00:51:29.213Z,4.70
2018-07-22T00:53:57.318Z,4.78
2018-07-22T00:56:25.489Z,4.55
2018-07-22T00:58:53.580Z,4.40
2018-07-22T01:01:21.658Z,4.15
2018-07-22T01:03:50.093Z,4.70
2018-07-22T01:06:18.277Z,4.17
2018-07-22T01:08:46.430Z,4.40
2018-07-22T01:11:14.617Z,4.70
2018-07-22T01:13:42.707Z,5.40
2018-07-22T01:16:10.912Z,4.37
2018-07-22T01:18:39.088Z,4.55
2018-07-22T01:21:07.269Z,4.30
2018-07-22T01:23:35.458Z,4.28
2018-07-22T01:26:03.630Z,4.50
2018-07-22T01:28:31.718Z,4.50
2018-07-22T01:30:59.806Z,4.87
2018-07-22T01:33:28.002Z,3.92
2018-07-22T01:35:56.186Z,4.62
2018-07-22T01:38:24.378Z,4.50
2018-07-22T01:40:52.550Z,4.40
2018-07-22T01:43:20.690Z,4.72
2018-07-22T01:45:48.827Z,4.10
2018-07-22T01:48:17.026Z,4.60
2018-07-22T01:50:45.194Z,4.58
2018-07-22T01:53:13.286Z,4.50
2018-07-22T01:55:41.472Z,3.77
2018-07-22T01:58:09.665Z,4.10
2018-07-22T02:00:37.855Z,4.30
2018-07-22T02:03:06.066Z,4.30
2018-07-22T02:05:34.215Z,4.28
2018-07-22T02:08:02.314Z,4.12
2018-07-22T02:10:31.409Z,4.30
2018-07-22T02:12:59.634Z,4.08
2018-07-22T02:15:27.787Z,4.83
2018-07-22T02:17:55.978Z,5.25
2018-07-22T02:20:25.098Z,5.35
2018-07-22T02:22:53.277Z,6.20
2018-07-22T02:25:21.460Z,5.72
2018-07-22T02:27:49.658Z,6.70
2018-07-22T02:30:18.851Z,6.75
2018-07-22T02:32:46.942Z,5.90
2018-07-22T02:35:15.125Z,6.75
2018-07-22T02:37:43.310Z,6.87
2018-07-22T02:40:11.504Z,6.40
2018-07-22T02:42:39.582Z,5.95
2018-07-22T02:45:07.848Z,6.75
2018-07-22T02:47:35.959Z,6.67
2018-07-22T02:50:04.435Z,6.35
2018-07-22T02:52:32.527Z,7.22
2018-07-22T02:55:00.622Z,6.47
2018-07-22T02:57:28.814Z,6.70
2018-07-22T02:59:56.991Z,6.30
2018-07-22T03:02:25.183Z,6.60
2018-07-22T03:04:53.371Z,5.70
2018-07-22T03:07:21.545Z,6.10
2018-07-22T03:09:49.649Z,6.40
2018-07-22T03:12:17.826Z,6.40
2018-07-22T03:14:46.022Z,6.80
2018-07-22T03:17:14.205Z,7.25
2018-07-22T03:19:42.387Z,7.00
2018-07-22T03:22:10.578Z,6.90
2018-07-22T03:24:38.756Z,7.50
2018-07-22T03:27:07.181Z,6.97
2018-07-22T03:29:35.370Z,7.03
2018-07-22T03:32:03.522Z,7.70
2018-07-22T03:34:31.850Z,6.87
2018-07-22T03:37:00.130Z,7.53
2018-07-22T03:39:28.297Z,7.70
2018-07-22T03:41:56.480Z,7.67
2018-07-22T03:44:24.674Z,7.50
2018-07-22T03:46:52.751Z,7.00
2018-07-22T03:49:20.934Z,6.87
2018-07-22T03:51:49.131Z,7.45
2018-07-22T03:54:17.318Z,7.70
2018-07-22T03:56:45.511Z,7.28
2018-07-22T03:59:13.789Z,7.35
2018-07-22T04:01:41.871Z,6.97
2018-07-22T04:04:09.958Z,7.45
2018-07-22T04:06:38.144Z,7.12
2018-07-22T04:09:07.585Z,7.37
2018-07-22T04:11:35.744Z,7.40
2018-07-22T04:14:03.966Z,7.37
2018-07-22T04:16:32.118Z,7.00
2018-07-22T04:19:00.307Z,6.28
2018-07-22T04:21:28.503Z,7.15
2018-07-22T04:23:56.578Z,7.05
2018-07-22T04:26:24.763Z,7.37
2018-07-22T04:28:52.970Z,6.53
2018-07-22T04:31:21.473Z,6.97
2018-07-22T04:33:49.765Z,6.97
2018-07-22T04:36:17.918Z,6.83
2018-07-22T04:38:46.101Z,7.47
2018-07-22T04:41:14.218Z,7.50
2018-07-22T04:43:42.383Z,7.87
2018-07-22T04:46:10.567Z,8.23
2018-07-22T04:48:38.772Z,7.40
2018-07-22T04:51:07.081Z,8.18
2018-07-22T04:53:35.252Z,7.95
2018-07-22T04:56:03.749Z,7.80
2018-07-22T04:58:31.919Z,8.50
2018-07-22T05:01:00.104Z,8.90
2018-07-22T05:03:28.299Z,9.15
2018-07-22T05:05:56.502Z,9.48
2018-07-22T05:08:24.677Z,10.40
2018-07-22T05:10:52.851Z,9.63
2018-07-22T05:13:21.038Z,10.50
2018-07-22T05:15:49.226Z,10.88
2018-07-22T05:18:17.410Z,9.70
2018-07-22T05:20:45.601Z,10.63
2018-07-22T05:23:13.779Z,9.68
2018-07-22T05:25:41.974Z,9.55
2018-07-22T05:28:10.141Z,8.75
2018-07-22T05:30:38.234Z,8.63
2018-07-22T05:33:06.527Z,9.18
2018-07-22T05:35:34.717Z,8.30
2018-07-22T05:38:02.905Z,8.58
2018-07-22T05:40:31.102Z,9.10
2018-07-22T05:42:59.405Z,10.45
2018-07-22T05:45:27.670Z,11.28
2018-07-22T05:47:55.750Z,10.65
2018-07-22T05:50:24.874Z,10.93
2018-07-22T05:52:53.046Z,11.57
2018-07-22T05:55:21.242Z,10.78
2018-07-22T05:57:49.414Z,9.50
2018-07-22T06:00:18.796Z,10.40
2018-07-22T06:02:47.436Z,11.48
2018-07-22T06:05:15.522Z,9.63
2018-07-22T06:07:43.722Z,9.43
2018-07-22T06:10:11.890Z,9.38
2018-07-22T06:12:40.075Z,8.68
2018-07-22T06:15:09.222Z,9.35
2018-07-22T06:17:37.505Z,9.63
2018-07-22T06:20:07.438Z,10.30
2018-07-22T06:22:35.994Z,10.70
2018-07-22T06:25:05.145Z,9.90
2018-07-22T06:27:33.297Z,10.70
2018-07-22T06:30:01.723Z,9.50
2018-07-22T06:32:29.921Z,9.75
2018-07-22T06:34:58.074Z,7.28
2018-07-22T06:37:26.243Z,6.97
2018-07-22T06:39:54.447Z,7.33
2018-07-22T06:42:22.654Z,6.40
2018-07-22T06:44:50.811Z,7.28
2018-07-22T06:47:19.012Z,8.60
2018-07-22T06:49:47.189Z,7.60
2018-07-22T06:52:15.382Z,7.58
2018-07-22T06:54:43.566Z,8.40
2018-07-22T06:57:11.781Z,8.55
2018-07-22T06:59:39.938Z,9.03
2018-07-22T07:02:08.115Z,10.03
2018-07-22T07:04:36.326Z,11.18
2018-07-22T07:07:04.491Z,10.50
2018-07-22T07:09:32.735Z,10.55
2018-07-22T07:12:00.871Z,10.63
2018-07-22T07:15:32.596Z,10.00
2018-07-22T07:18:00.774Z,11.12
2018-07-22T07:20:29.014Z,10.40
2018-07-22T07:22:57.206Z,9.95
2018-07-22T07:25:25.437Z,9.88
2018-07-22T07:27:53.585Z,9.83
2018-07-22T07:30:21.775Z,9.95
2018-07-22T07:32:49.969Z,9.18
2018-07-22T07:35:18.154Z,10.58
2018-07-22T07:37:46.351Z,9.13
2018-07-22T07:40:14.541Z,9.45
2018-07-22T07:42:42.705Z,10.35
2018-07-22T07:45:10.903Z,11.43
2018-07-22T07:47:39.074Z,12.47
2018-07-22T07:50:07.210Z,12.70
2018-07-22T07:52:35.345Z,10.18
2018-07-22T07:55:03.553Z,11.93
2018-07-22T07:57:31.721Z,11.48
2018-07-22T07:59:59.942Z,12.40
2018-07-22T08:02:28.109Z,9.65
2018-07-22T08:04:56.289Z,14.28
2018-07-22T08:07:24.467Z,14.63
2018-07-22T08:09:52.666Z,16.00
2018-07-22T08:12:20.845Z,14.70
2018-07-22T08:14:49.038Z,13.25
2018-07-22T08:17:17.218Z,15.00
2018-07-22T08:19:45.410Z,11.97
2018-07-22T08:22:13.707Z,12.15
2018-07-22T08:24:41.781Z,13.30
2018-07-22T08:27:10.446Z,13.05
2018-07-22T08:29:38.557Z,12.07
2018-07-22T08:32:07.203Z,11.25
2018-07-22T08:34:35.349Z,13.62
2018-07-22T08:37:03.534Z,12.43
2018-07-22T08:39:32.518Z,10.23
2018-07-22T08:42:01.065Z,13.78
2018-07-22T08:44:29.213Z,12.60
2018-07-22T08:46:57.417Z,12.58
2018-07-22T08:49:25.589Z,13.48
2018-07-22T08:51:53.682Z,13.70
2018-07-22T08:54:21.758Z,12.23
2018-07-22T08:56:49.963Z,14.45
2018-07-22T08:59:18.143Z,11.57
2018-07-22T09:01:46.342Z,12.18
2018-07-22T09:04:14.510Z,11.18
2018-07-22T09:06:42.701Z,12.93
2018-07-22T09:09:11.929Z,12.58
2018-07-22T09:11:40.202Z,13.13
2018-07-22T09:14:08.771Z,13.40
2018-07-22T09:16:36.921Z,13.18
2018-07-22T09:19:05.105Z,12.00
2018-07-22T09:21:33.249Z,13.30
2018-07-22T09:24:01.436Z,13.32
2018-07-22T09:26:29.627Z,13.80
2018-07-22T09:28:57.842Z,14.00
2018-07-22T09:31:26.010Z,12.40
2018-07-22T09:33:54.189Z,12.95
2018-07-22T09:36:22.433Z,13.80
2018-07-22T09:38:50.555Z,12.68
2018-07-22T09:41:18.748Z,13.55
2018-07-22T09:43:46.921Z,12.40
2018-07-22T09:46:15.159Z,13.55
2018-07-22T09:48:43.304Z,15.28
2018-07-22T09:51:11.502Z,13.58
2018-07-22T09:53:39.685Z,13.18
2018-07-22T09:56:07.878Z,12.73
2018-07-22T09:58:36.125Z,14.50
2018-07-22T10:01:04.249Z,12.58
2018-07-22T10:03:32.865Z,12.58
2018-07-22T10:06:01.030Z,12.55
2018-07-22T10:08:29.217Z,12.90
2018-07-22T10:10:57.414Z,13.45
2018-07-22T10:13:25.590Z,12.58
2018-07-22T10:15:53.781Z,12.65
2018-07-22T10:18:21.957Z,11.43
2018-07-22T10:20:50.174Z,13.03
2018-07-22T10:23:18.395Z,12.15
2018-07-22T10:25:46.509Z,12.28
2018-07-22T10:28:14.606Z,12.85
2018-07-22T10:30:42.786Z,15.95
2018-07-22T10:33:10.986Z,14.07
2018-07-22T10:35:39.158Z,13.15
2018-07-22T10:38:07.366Z,11.40
2018-07-22T10:40:35.542Z,11.60
2018-07-22T10:43:03.730Z,10.93
2018-07-22T10:45:31.909Z,10.95
2018-07-22T10:48:00.107Z,11.10
2018-07-22T10:50:28.190Z,11.78
2018-07-22T10:52:56.365Z,11.08
2018-07-22T10:55:24.575Z,11.68
2018-07-22T10:57:52.750Z,10.45
2018-07-22T11:00:21.854Z,11.03
2018-07-22T11:02:50.043Z,10.58
2018-07-22T11:05:18.223Z,12.20
2018-07-22T11:07:46.318Z,10.75
2018-07-22T11:10:14.511Z,11.60
2018-07-22T11:12:42.681Z,11.12
2018-07-22T11:15:10.864Z,11.53
2018-07-22T11:17:39.062Z,11.05
2018-07-22T11:20:07.258Z,12.07
2018-07-22T11:22:35.434Z,12.13
2018-07-22T11:25:03.614Z,12.73
2018-07-22T11:27:31.806Z,11.43
2018-07-22T11:29:59.989Z,11.38
2018-07-22T11:32:28.201Z,12.85
2018-07-22T11:34:56.358Z,11.97
2018-07-22T11:37:24.450Z,11.33
2018-07-22T11:39:52.631Z,10.70
2018-07-22T11:42:20.829Z,10.48
2018-07-22T11:44:49.132Z,11.48
2018-07-22T11:47:17.206Z,11.05
2018-07-22T11:49:45.374Z,11.28
2018-07-22T11:52:13.668Z,11.73
2018-07-22T11:54:42.775Z,10.48
2018-07-22T11:57:10.974Z,10.90
2018-07-22T11:59:39.169Z,10.35
2018-07-22T12:02:07.337Z,9.65
2018-07-22T12:04:35.518Z,9.93
2018-07-22T12:07:03.718Z,9.88
2018-07-22T12:09:31.895Z,10.08
2018-07-22T12:12:00.098Z,10.32
2018-07-22T12:14:28.271Z,10.85
2018-07-22T12:16:56.462Z,12.53
2018-07-22T12:19:24.643Z,14.53
2018-07-22T12:21:52.846Z,15.00
2018-07-22T12:24:21.014Z,16.52
2018-07-22T12:26:49.223Z,16.42
2018-07-22T12:29:17.429Z,16.23
2018-07-22T12:31:45.586Z,16.82
2018-07-22T12:34:13.789Z,15.60
2018-07-22T12:36:41.830Z,13.45
2018-07-22T12:39:12.013Z,15.25
2018-07-22T12:41:40.301Z,13.05
2018-07-22T12:44:08.473Z,13.05
2018-07-22T12:46:36.643Z,12.60
2018-07-22T12:49:05.234Z,12.45
2018-07-22T12:51:33.469Z,12.47
2018-07-22T12:54:01.639Z,12.23
2018-07-22T12:56:29.806Z,12.82
2018-07-22T12:58:58.434Z,14.50
2018-07-22T13:01:26.718Z,12.30
2018-07-22T13:03:55.019Z,12.43
2018-07-22T13:06:23.162Z,12.55
2018-07-22T13:08:51.406Z,13.78
2018-07-22T13:11:19.547Z,12.43
2018-07-22T13:13:47.722Z,13.58
2018-07-22T13:16:15.917Z,14.73
2018-07-22T13:18:44.132Z,14.75
2018-07-22T13:21:12.298Z,14.05
2018-07-22T13:23:40.486Z,13.83
2018-07-22T13:26:08.665Z,13.88
2018-07-22T13:28:36.850Z,12.95
2018-07-22T13:31:05.142Z,14.93
2018-07-22T13:33:33.370Z,14.25
2018-07-22T13:36:01.515Z,14.43
2018-07-22T13:38:29.810Z,14.70
2018-07-22T13:40:57.883Z,15.05
2018-07-22T13:43:26.115Z,16.02
2018-07-22T13:45:54.258Z,16.62
2018-07-22T13:48:22.450Z,15.95
2018-07-22T13:50:50.635Z,15.60
2018-07-22T13:53:19.473Z,15.05
2018-07-22T13:55:47.633Z,14.03
2018-07-22T13:58:15.837Z,14.98
2018-07-22T14:00:43.994Z,13.60
2018-07-22T14:03:12.193Z,14.18
2018-07-22T14:05:40.405Z,15.18
2018-07-22T14:08:08.565Z,13.28
2018-07-22T14:10:36.966Z,12.90
2018-07-22T14:13:05.270Z,12.93
2018-07-22T14:15:33.470Z,12.78
2018-07-22T14:18:01.634Z,12.25
2018-07-22T14:20:29.797Z,12.50
2018-07-22T14:22:58.022Z,12.33
2018-07-22T14:25:26.164Z,12.40
2018-07-22T14:27:54.412Z,11.48
2018-07-22T14:30:22.539Z,12.25
2018-07-22T14:32:50.740Z,11.20
2018-07-22T14:35:18.906Z,9.95
2018-07-22T14:37:47.033Z,11.97
2018-07-22T14:40:15.266Z,10.80
2018-07-22T14:42:43.673Z,11.70
2018-07-22T14:45:11.763Z,11.35
2018-07-22T14:47:39.937Z,8.68
2018-07-22T14:50:08.058Z,7.78
2018-07-22T14:52:36.214Z,7.47
2018-07-22T14:55:04.450Z,6.72
2018-07-22T14:57:32.619Z,6.97
2018-07-22T15:00:00.938Z,7.53
2018-07-22T15:02:29.217Z,8.10
2018-07-22T15:04:57.363Z,8.75
2018-07-22T15:07:25.549Z,9.33
2018-07-22T15:09:53.762Z,9.33
2018-07-22T15:12:22.026Z,7.85
2018-07-22T15:14:50.257Z,7.97
2018-07-22T15:17:18.399Z,8.38
2018-07-22T15:19:46.621Z,8.18
2018-07-22T15:22:14.851Z,8.50
2018-07-22T15:24:42.965Z,8.05
2018-07-22T15:27:11.133Z,8.68
2018-07-22T15:29:39.226Z,8.35
2018-07-22T15:32:07.474Z,8.85
2018-07-22T15:34:35.630Z,9.38
2018-07-22T15:37:03.791Z,8.95
2018-07-22T15:39:32.038Z,8.33
2018-07-22T15:42:00.199Z,8.88
2018-07-22T15:44:28.373Z,9.40
2018-07-22T15:46:56.537Z,9.63
2018-07-22T15:49:24.774Z,9.40
2018-07-22T15:51:52.910Z,9.35
2018-07-22T15:54:21.110Z,9.15
2018-07-22T15:56:49.288Z,9.45
2018-07-22T15:59:17.478Z,10.08
2018-07-22T16:01:45.658Z,9.98
2018-07-22T16:04:13.854Z,9.68
2018-07-22T16:06:42.038Z,10.15
2018-07-22T16:09:11.504Z,10.53
2018-07-22T16:11:39.874Z,11.35
2018-07-22T16:14:08.091Z,11.05
2018-07-22T16:16:36.353Z,11.78
2018-07-22T16:19:04.518Z,11.83
2018-07-22T16:21:32.694Z,11.57
2018-07-22T16:24:00.795Z,13.50
2018-07-22T16:26:28.962Z,12.80
2018-07-22T16:28:57.157Z,13.30
2018-07-22T16:31:25.254Z,14.00
2018-07-22T16:33:53.430Z,14.93
2018-07-22T16:36:21.645Z,14.58
2018-07-22T16:38:50.045Z,14.38
2018-07-22T16:41:18.181Z,15.23
2018-07-22T16:43:46.389Z,15.45
2018-07-22T16:46:14.565Z,16.55
2018-07-22T16:48:42.742Z,14.68
2018-07-22T16:51:10.821Z,15.38
2018-07-22T16:53:38.938Z,14.28
2018-07-22T16:56:07.190Z,14.70
2018-07-22T16:58:35.277Z,14.90
2018-07-22T17:01:03.484Z,15.43
2018-07-22T17:03:31.569Z,14.65
2018-07-22T17:05:59.771Z,13.05
2018-07-22T17:08:27.939Z,13.78
2018-07-22T17:10:56.129Z,12.68
2018-07-22T17:13:24.302Z,13.28
2018-07-22T17:15:52.393Z,13.72
2018-07-22T17:18:20.590Z,13.98
2018-07-22T17:20:48.798Z,12.47
2018-07-22T17:23:16.947Z,12.65
2018-07-22T17:25:45.137Z,13.13
2018-07-22T17:28:13.321Z,14.00
2018-07-22T17:30:41.511Z,13.18
2018-07-22T17:33:09.694Z,14.23
2018-07-22T17:35:37.887Z,13.58
2018-07-22T17:38:06.081Z,13.48
2018-07-22T17:40:34.262Z,13.38
2018-07-22T17:43:02.442Z,13.48
2018-07-22T17:45:30.638Z,13.40
2018-07-22T17:47:58.734Z,13.10
2018-07-22T17:50:26.902Z,13.10
2018-07-22T17:52:55.094Z,12.60
2018-07-22T17:55:23.282Z,12.90
2018-07-22T17:57:51.541Z,13.53
2018-07-22T18:00:19.666Z,13.70
2018-07-22T18:02:52.210Z,13.35
2018-07-22T18:05:20.415Z,13.28
2018-07-22T18:07:48.498Z,13.90
2018-07-22T18:10:17.626Z,13.75
2018-07-22T18:12:45.804Z,13.00
2018-07-22T18:15:13.906Z,13.85
2018-07-22T18:17:42.019Z,12.82
2018-07-22T18:20:10.301Z,12.85
2018-07-22T18:22:38.458Z,12.88
2018-07-22T18:25:06.650Z,14.80
2018-07-22T18:27:34.730Z,13.75
2018-07-22T18:30:02.926Z,13.65
2018-07-22T18:32:31.095Z,12.93
2018-07-22T18:34:59.187Z,13.40
2018-07-22T18:37:27.406Z,13.78
2018-07-22T18:39:55.598Z,13.18
2018-07-22T18:42:23.775Z,13.30
2018-07-22T18:44:51.942Z,14.50
2018-07-22T18:47:20.350Z,13.65
2018-07-22T18:49:48.523Z,13.15
2018-07-22T18:52:17.510Z,12.43
2018-07-22T18:54:45.698Z,13.00
2018-07-22T18:57:13.897Z,12.65
2018-07-22T18:59:42.123Z,13.88
2018-07-22T19:02:10.255Z,13.32
2018-07-22T19:04:38.450Z,13.00
2018-07-22T19:07:06.598Z,12.03
2018-07-22T19:09:34.726Z,12.30
2018-07-22T19:12:02.903Z,12.35
2018-07-22T19:14:31.142Z,12.45
2018-07-22T19:16:59.285Z,11.88
2018-07-22T19:19:27.474Z,12.75
2018-07-22T19:21:55.666Z,12.25
2018-07-22T19:24:23.845Z,11.88
2018-07-22T19:26:52.082Z,12.53
2018-07-22T19:29:20.214Z,13.08
2018-07-22T19:31:48.409Z,12.28
2018-07-22T19:34:16.586Z,13.55
2018-07-22T19:36:44.797Z,12.90
2018-07-22T19:39:12.990Z,12.63
2018-07-22T19:41:41.167Z,12.45
2018-07-22T19:44:09.334Z,13.83
2018-07-22T19:46:37.445Z,13.60
2018-07-22T19:49:05.602Z,13.88
2018-07-22T19:51:33.806Z,13.72
2018-07-22T19:54:01.978Z,14.18
2018-07-22T19:56:30.178Z,15.23
2018-07-22T19:58:58.365Z,13.65
2018-07-22T20:01:26.548Z,13.28
2018-07-22T20:03:54.722Z,14.03
2018-07-22T20:06:22.818Z,13.68
2018-07-22T20:08:51.134Z,12.60
2018-07-22T20:11:19.393Z,12.40
2018-07-22T20:13:47.581Z,13.03
2018-07-22T20:16:15.769Z,12.60
2018-07-22T20:18:43.966Z,12.80
2018-07-22T20:21:12.146Z,12.70
2018-07-22T20:23:40.328Z,13.05
2018-07-22T20:26:08.526Z,12.55
2018-07-22T20:28:36.698Z,12.73
2018-07-22T20:31:05.078Z,13.25
2018-07-22T20:33:33.175Z,13.28
2018-07-22T20:36:01.442Z,13.50
2018-07-22T20:38:29.547Z,13.85
2018-07-22T20:40:57.745Z,13.32
2018-07-22T20:43:25.925Z,12.70
2018-07-22T20:45:54.110Z,13.83
2018-07-22T20:48:22.302Z,14.55
2018-07-22T20:50:50.493Z,14.13
2018-07-22T20:53:18.674Z,14.28
2018-07-22T20:55:46.870Z,12.93
2018-07-22T20:58:15.043Z,13.38
2018-07-22T21:00:43.241Z,13.80
2018-07-22T21:03:11.438Z,13.53
2018-07-22T21:05:39.618Z,12.95
2018-07-22T21:08:07.824Z,15.10
2018-07-22T21:10:35.990Z,13.75
2018-07-22T21:13:16.518Z,13.68
2018-07-22T21:15:44.706Z,13.68
2018-07-22T21:18:12.826Z,13.70
2018-07-22T21:20:41.262Z,14.35
2018-07-22T21:23:09.421Z,14.33
2018-07-22T21:25:37.594Z,14.47
2018-07-22T21:28:05.934Z,14.00
2018-07-22T21:30:34.083Z,14.28
2018-07-22T21:33:02.174Z,14.38
2018-07-22T21:35:30.346Z,14.80
2018-07-22T21:37:58.669Z,14.80
2018-07-22T21:40:27.893Z,15.58
2018-07-22T21:42:56.041Z,15.10
2018-07-22T21:45:24.216Z,14.90
2018-07-22T21:47:52.418Z,14.95
2018-07-22T21:50:20.498Z,13.35
2018-07-22T21:52:48.682Z,13.98
2018-07-22T21:55:16.854Z,14.65
2018-07-22T21:57:45.046Z,15.35
2018-07-22T22:00:19.054Z,14.05
2018-07-22T22:02:47.170Z,14.00
2018-07-22T22:05:15.345Z,14.87
2018-07-22T22:07:43.554Z,14.00
2018-07-22T22:10:11.719Z,14.15
2018-07-22T22:12:39.934Z,14.63
2018-07-22T22:15:15.276Z,14.60
2018-07-22T22:17:43.594Z,14.33
2018-07-22T22:20:11.737Z,13.65
2018-07-22T22:22:39.929Z,14.45
2018-07-22T22:25:08.119Z,15.00
2018-07-22T22:27:36.309Z,14.30
2018-07-22T22:30:04.830Z,13.83
2018-07-22T22:32:32.981Z,13.43
2018-07-22T22:35:01.163Z,13.75
2018-07-22T22:37:29.350Z,14.78
2018-07-22T22:39:57.550Z,13.00
2018-07-22T22:42:25.726Z,13.93
2018-07-22T22:44:53.919Z,13.95
2018-07-22T22:47:22.101Z,13.55
2018-07-22T22:49:50.293Z,14.00
2018-07-22T22:52:18.478Z,14.90
2018-07-22T22:54:46.653Z,13.93
2018-07-22T22:57:14.901Z,14.85
2018-07-22T22:59:43.026Z,13.32
2018-07-22T23:02:11.230Z,13.95
2018-07-22T23:04:39.413Z,13.35
2018-07-22T23:07:07.598Z,13.25
2018-07-22T23:09:35.780Z,14.68
2018-07-22T23:12:03.975Z,14.75
2018-07-22T23:14:32.155Z,13.80
2018-07-22T23:17:00.346Z,14.80
2018-07-22T23:19:28.529Z,14.60
2018-07-22T23:21:56.730Z,14.40
2018-07-22T23:24:24.812Z,16.00
2018-07-22T23:26:52.993Z,16.77
2018-07-22T23:29:21.167Z,14.63
2018-07-22T23:31:49.573Z,14.75
2018-07-22T23:34:17.742Z,14.18
2018-07-22T23:36:45.937Z,14.68
2018-07-22T23:39:14.121Z,17.25
2018-07-22T23:41:42.313Z,17.82
2018-07-22T23:44:10.502Z,17.52
2018-07-22T23:46:38.682Z,17.45
2018-07-22T23:49:06.874Z,17.52
2018-07-22T23:51:35.064Z,17.55
2018-07-22T23:54:03.253Z,17.35
2018-07-22T23:56:31.426Z,17.23
2018-07-22T23:58:59.623Z,16.87
